sensor_id;sensor_type;location;lat;lon;timestamp;temperature;humidity
1259;DHT22;619;51.472;6.628;2023-08-21T00:01:01;25.60;72.00
1259;DHT22;619;51.472;6.628;2023-08-21T00:03:27;25.50;71.90
1259;DHT22;619;51.472;6.628;2023-08-21T00:05:52;25.50;72.00
1259;DHT22;619;51.472;6.628;2023-08-21T00:08:18;25.50;72.30
1259;DHT22;619;51.472;6.628;2023-08-21T00:10:46;25.40;72.30
1259;DHT22;619;51.472;6.628;2023-08-21T00:13:14;25.40;72.50
1259;DHT22;619;51.472;6.628;2023-08-21T00:15:44;25.40;72.70
1259;DHT22;619;51.472;6.628;2023-08-21T00:18:12;25.30;72.70
1259;DHT22;619;51.472;6.628;2023-08-21T00:20:40;25.30;72.90
1259;DHT22;619;51.472;6.628;2023-08-21T00:23:10;25.30;73.10
1259;DHT22;619;51.472;6.628;2023-08-21T00:25:36;25.20;73.00
1259;DHT22;619;51.472;6.628;2023-08-21T00:28:02;25.20;73.20
1259;DHT22;619;51.472;6.628;2023-08-21T00:30:30;25.20;73.30
1259;DHT22;619;51.472;6.628;2023-08-21T00:33:00;25.10;73.60
1259;DHT22;619;51.472;6.628;2023-08-21T00:35:28;25.10;73.70
1259;DHT22;619;51.472;6.628;2023-08-21T00:37:53;25.10;74.00
1259;DHT22;619;51.472;6.628;2023-08-21T00:40:19;25.00;74.00
1259;DHT22;619;51.472;6.628;2023-08-21T00:42:44;25.00;73.90
1259;DHT22;619;51.472;6.628;2023-08-21T00:45:10;25.00;74.00
1259;DHT22;619;51.472;6.628;2023-08-21T00:47:38;25.00;74.10
1259;DHT22;619;51.472;6.628;2023-08-21T00:50:06;24.90;74.20
1259;DHT22;619;51.472;6.628;2023-08-21T00:52:32;24.90;74.50
1259;DHT22;619;51.472;6.628;2023-08-21T00:55:01;24.90;74.70
1259;DHT22;619;51.472;6.628;2023-08-21T00:57:32;24.90;74.80
1259;DHT22;619;51.472;6.628;2023-08-21T01:00:01;24.90;74.80
1259;DHT22;619;51.472;6.628;2023-08-21T01:02:26;24.80;74.80
1259;DHT22;619;51.472;6.628;2023-08-21T01:04:52;24.80;74.80
1259;DHT22;619;51.472;6.628;2023-08-21T01:07:21;24.80;74.90
1259;DHT22;619;51.472;6.628;2023-08-21T01:10:01;24.80;75.00
1259;DHT22;619;51.472;6.628;2023-08-21T01:12:37;24.70;75.10
1259;DHT22;619;51.472;6.628;2023-08-21T01:15:08;24.70;75.30
1259;DHT22;619;51.472;6.628;2023-08-21T01:17:38;24.70;75.50
1259;DHT22;619;51.472;6.628;2023-08-21T01:20:09;24.60;75.50
1259;DHT22;619;51.472;6.628;2023-08-21T01:22:40;24.60;75.70
1259;DHT22;619;51.472;6.628;2023-08-21T01:25:06;24.50;75.80
1259;DHT22;619;51.472;6.628;2023-08-21T01:27:33;24.50;75.90
1259;DHT22;619;51.472;6.628;2023-08-21T01:30:00;24.50;76.00
1259;DHT22;619;51.472;6.628;2023-08-21T01:32:40;24.40;76.00
1259;DHT22;619;51.472;6.628;2023-08-21T01:35:09;24.40;76.30
1259;DHT22;619;51.472;6.628;2023-08-21T01:37:38;24.40;76.30
1259;DHT22;619;51.472;6.628;2023-08-21T01:40:05;24.40;76.50
1259;DHT22;619;51.472;6.628;2023-08-21T01:42:31;24.30;76.50
1259;DHT22;619;51.472;6.628;2023-08-21T01:44:57;24.30;76.70
1259;DHT22;619;51.472;6.628;2023-08-21T01:47:22;24.30;76.80
1259;DHT22;619;51.472;6.628;2023-08-21T01:49:48;24.20;76.80
1259;DHT22;619;51.472;6.628;2023-08-21T01:52:18;24.20;76.90
1259;DHT22;619;51.472;6.628;2023-08-21T01:54:45;24.20;77.10
1259;DHT22;619;51.472;6.628;2023-08-21T01:57:13;24.20;77.10
1259;DHT22;619;51.472;6.628;2023-08-21T01:59:39;24.10;77.00
1259;DHT22;619;51.472;6.628;2023-08-21T02:02:04;24.10;77.20
1259;DHT22;619;51.472;6.628;2023-08-21T02:04:30;24.10;77.40
1259;DHT22;619;51.472;6.628;2023-08-21T02:07:00;24.10;77.70
1259;DHT22;619;51.472;6.628;2023-08-21T02:09:28;24.20;77.80
1259;DHT22;619;51.472;6.628;2023-08-21T02:11:53;24.20;78.40
1259;DHT22;619;51.472;6.628;2023-08-21T02:14:21;24.20;77.60
1259;DHT22;619;51.472;6.628;2023-08-21T02:16:48;24.20;77.40
1259;DHT22;619;51.472;6.628;2023-08-21T02:19:16;24.20;77.20
1259;DHT22;619;51.472;6.628;2023-08-21T02:21:41;24.20;77.20
1259;DHT22;619;51.472;6.628;2023-08-21T02:24:09;24.20;77.50
1259;DHT22;619;51.472;6.628;2023-08-21T02:26:35;24.20;77.60
1259;DHT22;619;51.472;6.628;2023-08-21T02:29:03;24.20;77.80
1259;DHT22;619;51.472;6.628;2023-08-21T02:31:29;24.20;77.80
1259;DHT22;619;51.472;6.628;2023-08-21T02:33:59;24.20;77.70
1259;DHT22;619;51.472;6.628;2023-08-21T02:36:25;24.10;77.60
1259;DHT22;619;51.472;6.628;2023-08-21T02:38:50;24.10;77.50
1259;DHT22;619;51.472;6.628;2023-08-21T02:41:16;24.10;77.50
1259;DHT22;619;51.472;6.628;2023-08-21T02:43:43;24.10;77.40
1259;DHT22;619;51.472;6.628;2023-08-21T02:46:14;24.00;77.40
1259;DHT22;619;51.472;6.628;2023-08-21T02:48:40;24.00;77.50
1259;DHT22;619;51.472;6.628;2023-08-21T02:51:05;24.00;77.50
1259;DHT22;619;51.472;6.628;2023-08-21T02:53:35;24.00;77.50
1259;DHT22;619;51.472;6.628;2023-08-21T02:56:01;24.00;77.60
1259;DHT22;619;51.472;6.628;2023-08-21T02:58:29;23.90;77.50
1259;DHT22;619;51.472;6.628;2023-08-21T03:00:57;23.90;77.50
1259;DHT22;619;51.472;6.628;2023-08-21T03:03:23;23.90;77.70
1259;DHT22;619;51.472;6.628;2023-08-21T03:05:48;23.90;77.90
1259;DHT22;619;51.472;6.628;2023-08-21T03:08:14;23.90;78.10
1259;DHT22;619;51.472;6.628;2023-08-21T03:10:42;23.90;78.30
1259;DHT22;619;51.472;6.628;2023-08-21T03:13:09;23.90;78.50
1259;DHT22;619;51.472;6.628;2023-08-21T03:15:37;23.90;78.50
1259;DHT22;619;51.472;6.628;2023-08-21T03:18:03;23.90;78.50
1259;DHT22;619;51.472;6.628;2023-08-21T03:20:29;23.90;78.60
1259;DHT22;619;51.472;6.628;2023-08-21T03:22:54;23.90;78.80
1259;DHT22;619;51.472;6.628;2023-08-21T03:25:22;23.90;78.70
1259;DHT22;619;51.472;6.628;2023-08-21T03:27:48;23.90;78.90
1259;DHT22;619;51.472;6.628;2023-08-21T03:30:15;23.90;78.90
1259;DHT22;619;51.472;6.628;2023-08-21T03:32:41;24.00;79.00
1259;DHT22;619;51.472;6.628;2023-08-21T03:35:13;24.00;78.80
1259;DHT22;619;51.472;6.628;2023-08-21T03:37:39;24.00;78.40
1259;DHT22;619;51.472;6.628;2023-08-21T03:40:08;24.00;78.20
1259;DHT22;619;51.472;6.628;2023-08-21T03:42:33;24.00;77.90
1259;DHT22;619;51.472;6.628;2023-08-21T03:44:59;24.00;77.80
1259;DHT22;619;51.472;6.628;2023-08-21T03:47:24;23.90;77.60
1259;DHT22;619;51.472;6.628;2023-08-21T03:49:50;23.90;77.60
1259;DHT22;619;51.472;6.628;2023-08-21T03:52:16;23.90;77.40
1259;DHT22;619;51.472;6.628;2023-08-21T03:54:41;23.90;77.30
1259;DHT22;619;51.472;6.628;2023-08-21T03:57:07;23.90;77.30
1259;DHT22;619;51.472;6.628;2023-08-21T03:59:35;23.80;77.10
1259;DHT22;619;51.472;6.628;2023-08-21T04:02:03;23.80;77.00
1259;DHT22;619;51.472;6.628;2023-08-21T04:04:28;23.80;77.10
1259;DHT22;619;51.472;6.628;2023-08-21T04:06:54;23.80;77.20
1259;DHT22;619;51.472;6.628;2023-08-21T04:09:22;23.80;77.30
1259;DHT22;619;51.472;6.628;2023-08-21T04:11:47;23.80;77.40
1259;DHT22;619;51.472;6.628;2023-08-21T04:14:13;23.70;77.30
1259;DHT22;619;51.472;6.628;2023-08-21T04:16:39;23.70;77.30
1259;DHT22;619;51.472;6.628;2023-08-21T04:19:06;23.70;77.50
1259;DHT22;619;51.472;6.628;2023-08-21T04:21:34;23.70;77.70
1259;DHT22;619;51.472;6.628;2023-08-21T04:24:00;23.70;77.90
1259;DHT22;619;51.472;6.628;2023-08-21T04:26:25;23.70;77.70
1259;DHT22;619;51.472;6.628;2023-08-21T04:28:51;23.70;77.50
1259;DHT22;619;51.472;6.628;2023-08-21T04:31:16;23.70;77.60
1259;DHT22;619;51.472;6.628;2023-08-21T04:33:44;23.70;77.80
1259;DHT22;619;51.472;6.628;2023-08-21T04:36:16;23.80;78.00
1259;DHT22;619;51.472;6.628;2023-08-21T04:38:42;23.80;78.00
1259;DHT22;619;51.472;6.628;2023-08-21T04:41:11;23.80;78.10
1259;DHT22;619;51.472;6.628;2023-08-21T04:43:41;23.80;78.00
1259;DHT22;619;51.472;6.628;2023-08-21T04:46:06;23.90;78.00
1259;DHT22;619;51.472;6.628;2023-08-21T04:48:34;23.90;77.80
1259;DHT22;619;51.472;6.628;2023-08-21T04:51:03;24.00;77.90
1259;DHT22;619;51.472;6.628;2023-08-21T04:53:30;24.00;77.80
1259;DHT22;619;51.472;6.628;2023-08-21T04:55:59;24.00;77.30
1259;DHT22;619;51.472;6.628;2023-08-21T04:58:26;24.00;76.90
1259;DHT22;619;51.472;6.628;2023-08-21T05:00:52;24.10;76.70
1259;DHT22;619;51.472;6.628;2023-08-21T05:03:18;24.10;76.50
1259;DHT22;619;51.472;6.628;2023-08-21T05:05:52;24.10;76.50
1259;DHT22;619;51.472;6.628;2023-08-21T05:08:18;24.10;76.10
1259;DHT22;619;51.472;6.628;2023-08-21T05:10:46;24.10;76.20
1259;DHT22;619;51.472;6.628;2023-08-21T05:13:13;24.10;76.10
1259;DHT22;619;51.472;6.628;2023-08-21T05:15:45;24.20;76.00
1259;DHT22;619;51.472;6.628;2023-08-21T05:18:20;24.20;76.00
1259;DHT22;619;51.472;6.628;2023-08-21T05:20:47;24.30;75.90
1259;DHT22;619;51.472;6.628;2023-08-21T05:23:13;24.40;75.80
1259;DHT22;619;51.472;6.628;2023-08-21T05:25:44;24.40;75.60
1259;DHT22;619;51.472;6.628;2023-08-21T05:28:12;24.50;75.30
1259;DHT22;619;51.472;6.628;2023-08-21T05:30:40;24.50;75.00
1259;DHT22;619;51.472;6.628;2023-08-21T05:33:06;24.60;74.60
1259;DHT22;619;51.472;6.628;2023-08-21T05:35:37;24.70;74.50
1259;DHT22;619;51.472;6.628;2023-08-21T05:38:03;24.80;74.30
1259;DHT22;619;51.472;6.628;2023-08-21T05:40:29;24.80;74.20
1259;DHT22;619;51.472;6.628;2023-08-21T05:42:55;24.80;74.20
1259;DHT22;619;51.472;6.628;2023-08-21T05:45:20;24.90;74.20
1259;DHT22;619;51.472;6.628;2023-08-21T05:47:46;25.00;74.10
1259;DHT22;619;51.472;6.628;2023-08-21T05:50:14;25.10;73.70
1259;DHT22;619;51.472;6.628;2023-08-21T05:52:40;25.10;73.20
1259;DHT22;619;51.472;6.628;2023-08-21T05:55:06;25.20;72.70
1259;DHT22;619;51.472;6.628;2023-08-21T05:57:34;25.20;72.60
1259;DHT22;619;51.472;6.628;2023-08-21T06:00:03;25.30;72.50
1259;DHT22;619;51.472;6.628;2023-08-21T06:02:28;25.40;71.90
1259;DHT22;619;51.472;6.628;2023-08-21T06:04:54;25.40;71.50
1259;DHT22;619;51.472;6.628;2023-08-21T06:07:20;25.50;71.10
1259;DHT22;619;51.472;6.628;2023-08-21T06:09:45;25.60;71.30
1259;DHT22;619;51.472;6.628;2023-08-21T06:12:18;25.60;70.80
1259;DHT22;619;51.472;6.628;2023-08-21T06:14:43;25.60;70.70
1259;DHT22;619;51.472;6.628;2023-08-21T06:17:09;25.70;70.60
1259;DHT22;619;51.472;6.628;2023-08-21T06:19:35;25.70;70.50
1259;DHT22;619;51.472;6.628;2023-08-21T06:22:01;25.80;70.30
1259;DHT22;619;51.472;6.628;2023-08-21T06:24:29;25.80;70.30
1259;DHT22;619;51.472;6.628;2023-08-21T06:26:56;25.90;70.00
1259;DHT22;619;51.472;6.628;2023-08-21T06:29:22;25.90;70.00
1259;DHT22;619;51.472;6.628;2023-08-21T06:31:48;26.00;70.20
1259;DHT22;619;51.472;6.628;2023-08-21T06:34:13;26.10;69.60
1259;DHT22;619;51.472;6.628;2023-08-21T06:36:41;26.20;69.30
1259;DHT22;619;51.472;6.628;2023-08-21T06:39:07;26.30;69.70
1259;DHT22;619;51.472;6.628;2023-08-21T06:41:32;26.40;68.90
1259;DHT22;619;51.472;6.628;2023-08-21T06:44:00;26.50;68.40
1259;DHT22;619;51.472;6.628;2023-08-21T06:46:27;26.50;68.20
1259;DHT22;619;51.472;6.628;2023-08-21T06:48:52;26.70;68.30
1259;DHT22;619;51.472;6.628;2023-08-21T06:51:18;26.80;68.00
1259;DHT22;619;51.472;6.628;2023-08-21T06:53:43;26.90;67.20
1259;DHT22;619;51.472;6.628;2023-08-21T06:56:09;27.10;67.10
1259;DHT22;619;51.472;6.628;2023-08-21T06:58:35;27.30;66.00
1259;DHT22;619;51.472;6.628;2023-08-21T07:01:02;27.40;65.40
1259;DHT22;619;51.472;6.628;2023-08-21T07:03:28;27.40;65.40
1259;DHT22;619;51.472;6.628;2023-08-21T07:06:00;27.50;65.60
1259;DHT22;619;51.472;6.628;2023-08-21T07:08:27;27.50;65.70
1259;DHT22;619;51.472;6.628;2023-08-21T07:10:56;27.50;66.10
1259;DHT22;619;51.472;6.628;2023-08-21T07:13:22;27.50;65.40
1259;DHT22;619;51.472;6.628;2023-08-21T07:15:53;27.50;65.30
1259;DHT22;619;51.472;6.628;2023-08-21T07:18:21;27.50;65.20
1259;DHT22;619;51.472;6.628;2023-08-21T07:20:52;27.50;64.80
1259;DHT22;619;51.472;6.628;2023-08-21T07:23:17;27.50;65.00
1259;DHT22;619;51.472;6.628;2023-08-21T07:25:43;27.70;65.50
1259;DHT22;619;51.472;6.628;2023-08-21T07:28:11;27.80;66.20
1259;DHT22;619;51.472;6.628;2023-08-21T07:30:37;27.90;64.50
1259;DHT22;619;51.472;6.628;2023-08-21T07:33:08;28.00;64.10
1259;DHT22;619;51.472;6.628;2023-08-21T07:35:34;28.20;63.60
1259;DHT22;619;51.472;6.628;2023-08-21T07:38:03;28.30;63.40
1259;DHT22;619;51.472;6.628;2023-08-21T07:40:29;28.40;63.50
1259;DHT22;619;51.472;6.628;2023-08-21T07:42:56;28.50;63.60
1259;DHT22;619;51.472;6.628;2023-08-21T07:45:22;28.60;63.90
1259;DHT22;619;51.472;6.628;2023-08-21T07:47:48;28.60;63.60
1259;DHT22;619;51.472;6.628;2023-08-21T07:50:16;28.70;63.70
1259;DHT22;619;51.472;6.628;2023-08-21T07:52:42;28.70;63.80
1259;DHT22;619;51.472;6.628;2023-08-21T07:55:08;28.70;62.90
1259;DHT22;619;51.472;6.628;2023-08-21T07:57:36;28.80;62.70
1259;DHT22;619;51.472;6.628;2023-08-21T08:00:01;28.80;63.50
1259;DHT22;619;51.472;6.628;2023-08-21T08:02:34;28.90;63.60
1259;DHT22;619;51.472;6.628;2023-08-21T08:05:02;29.00;63.90
1259;DHT22;619;51.472;6.628;2023-08-21T08:07:28;29.10;63.00
1259;DHT22;619;51.472;6.628;2023-08-21T08:09:54;29.10;63.10
1259;DHT22;619;51.472;6.628;2023-08-21T08:12:22;29.20;63.40
1259;DHT22;619;51.472;6.628;2023-08-21T08:14:47;29.20;62.20
1259;DHT22;619;51.472;6.628;2023-08-21T08:17:13;29.30;61.10
1259;DHT22;619;51.472;6.628;2023-08-21T08:19:41;29.40;60.50
1259;DHT22;619;51.472;6.628;2023-08-21T08:22:06;29.50;60.60
1259;DHT22;619;51.472;6.628;2023-08-21T08:24:32;29.60;60.90
1259;DHT22;619;51.472;6.628;2023-08-21T08:27:02;29.70;60.10
1259;DHT22;619;51.472;6.628;2023-08-21T08:29:28;29.60;59.60
1259;DHT22;619;51.472;6.628;2023-08-21T08:31:53;29.60;58.80
1259;DHT22;619;51.472;6.628;2023-08-21T08:34:19;29.60;59.10
1259;DHT22;619;51.472;6.628;2023-08-21T08:36:46;29.60;59.30
1259;DHT22;619;51.472;6.628;2023-08-21T08:39:11;29.60;59.10
1259;DHT22;619;51.472;6.628;2023-08-21T08:42:05;29.60;58.60
1259;DHT22;619;51.472;6.628;2023-08-21T08:44:35;29.60;59.50
1259;DHT22;619;51.472;6.628;2023-08-21T08:47:01;29.60;58.10
1259;DHT22;619;51.472;6.628;2023-08-21T08:49:27;29.70;57.90
1259;DHT22;619;51.472;6.628;2023-08-21T08:51:57;29.70;57.60
1259;DHT22;619;51.472;6.628;2023-08-21T08:54:23;29.80;58.00
1259;DHT22;619;51.472;6.628;2023-08-21T08:56:53;29.90;58.10
1259;DHT22;619;51.472;6.628;2023-08-21T08:59:19;30.00;57.60
1259;DHT22;619;51.472;6.628;2023-08-21T09:01:47;30.10;57.30
1259;DHT22;619;51.472;6.628;2023-08-21T09:04:17;30.30;57.40
1259;DHT22;619;51.472;6.628;2023-08-21T09:06:45;30.40;57.00
1259;DHT22;619;51.472;6.628;2023-08-21T09:09:13;30.60;56.40
1259;DHT22;619;51.472;6.628;2023-08-21T09:11:45;30.70;56.10
1259;DHT22;619;51.472;6.628;2023-08-21T09:14:11;30.90;56.60
1259;DHT22;619;51.472;6.628;2023-08-21T09:16:37;30.90;56.20
1259;DHT22;619;51.472;6.628;2023-08-21T09:19:05;31.10;55.10
1259;DHT22;619;51.472;6.628;2023-08-21T09:21:31;31.10;54.80
1259;DHT22;619;51.472;6.628;2023-08-21T09:23:58;31.20;55.40
1259;DHT22;619;51.472;6.628;2023-08-21T09:26:25;31.30;56.10
1259;DHT22;619;51.472;6.628;2023-08-21T09:28:54;31.50;55.60
1259;DHT22;619;51.472;6.628;2023-08-21T09:31:23;31.60;55.40
1259;DHT22;619;51.472;6.628;2023-08-21T09:34:15;31.80;54.50
1259;DHT22;619;51.472;6.628;2023-08-21T09:36:41;32.00;53.60
1259;DHT22;619;51.472;6.628;2023-08-21T09:39:15;32.10;53.50
1259;DHT22;619;51.472;6.628;2023-08-21T09:41:54;32.20;53.70
1259;DHT22;619;51.472;6.628;2023-08-21T09:44:20;32.20;53.80
1259;DHT22;619;51.472;6.628;2023-08-21T09:46:50;32.30;53.30
1259;DHT22;619;51.472;6.628;2023-08-21T09:49:16;32.40;52.90
1259;DHT22;619;51.472;6.628;2023-08-21T09:51:44;32.50;53.00
1259;DHT22;619;51.472;6.628;2023-08-21T09:54:13;32.50;53.70
1259;DHT22;619;51.472;6.628;2023-08-21T09:56:39;32.60;52.60
1259;DHT22;619;51.472;6.628;2023-08-21T09:59:06;32.60;53.40
1259;DHT22;619;51.472;6.628;2023-08-21T10:01:34;32.70;52.70
1259;DHT22;619;51.472;6.628;2023-08-21T10:04:02;32.80;52.80
1259;DHT22;619;51.472;6.628;2023-08-21T10:06:29;32.80;52.40
1259;DHT22;619;51.472;6.628;2023-08-21T10:08:56;32.80;52.50
1259;DHT22;619;51.472;6.628;2023-08-21T10:11:25;32.90;52.10
1259;DHT22;619;51.472;6.628;2023-08-21T10:13:55;32.90;52.80
1259;DHT22;619;51.472;6.628;2023-08-21T10:16:23;32.90;53.10
1259;DHT22;619;51.472;6.628;2023-08-21T10:18:53;32.90;53.30
1259;DHT22;619;51.472;6.628;2023-08-21T10:21:22;33.00;53.50
1259;DHT22;619;51.472;6.628;2023-08-21T10:23:54;33.00;53.30
1259;DHT22;619;51.472;6.628;2023-08-21T10:26:26;33.00;53.20
1259;DHT22;619;51.472;6.628;2023-08-21T10:28:53;33.00;53.40
1259;DHT22;619;51.472;6.628;2023-08-21T10:31:28;33.00;52.40
1259;DHT22;619;51.472;6.628;2023-08-21T10:33:54;33.10;52.50
1259;DHT22;619;51.472;6.628;2023-08-21T10:39:19;33.30;51.90
1259;DHT22;619;51.472;6.628;2023-08-21T10:49:43;33.10;51.50
1259;DHT22;619;51.472;6.628;2023-08-21T10:52:09;33.10;51.80
1259;DHT22;619;51.472;6.628;2023-08-21T10:54:51;33.10;52.30
1259;DHT22;619;51.472;6.628;2023-08-21T10:57:17;33.20;51.30
1259;DHT22;619;51.472;6.628;2023-08-21T11:02:20;33.30;52.10
1259;DHT22;619;51.472;6.628;2023-08-21T11:04:49;33.40;51.60
1259;DHT22;619;51.472;6.628;2023-08-21T11:07:15;33.40;51.80
1259;DHT22;619;51.472;6.628;2023-08-21T11:09:44;33.40;51.40
1259;DHT22;619;51.472;6.628;2023-08-21T11:12:12;33.40;51.10
1259;DHT22;619;51.472;6.628;2023-08-21T11:14:38;33.40;51.10
1259;DHT22;619;51.472;6.628;2023-08-21T11:17:04;33.40;51.90
1259;DHT22;619;51.472;6.628;2023-08-21T11:19:33;33.50;51.60
1259;DHT22;619;51.472;6.628;2023-08-21T11:22:02;33.50;51.50
1259;DHT22;619;51.472;6.628;2023-08-21T11:27:03;33.70;51.30
1259;DHT22;619;51.472;6.628;2023-08-21T11:29:43;33.80;51.00
1259;DHT22;619;51.472;6.628;2023-08-21T11:32:13;33.80;49.70
1259;DHT22;619;51.472;6.628;2023-08-21T11:34:39;33.90;50.70
1259;DHT22;619;51.472;6.628;2023-08-21T11:37:05;34.10;51.70
1259;DHT22;619;51.472;6.628;2023-08-21T11:39:47;34.10;50.70
1259;DHT22;619;51.472;6.628;2023-08-21T11:42:13;34.30;50.20
1259;DHT22;619;51.472;6.628;2023-08-21T11:44:52;34.40;50.40
1259;DHT22;619;51.472;6.628;2023-08-21T11:47:22;34.60;51.60
1259;DHT22;619;51.472;6.628;2023-08-21T11:49:48;34.70;49.20
1259;DHT22;619;51.472;6.628;2023-08-21T11:52:21;34.70;48.70
1259;DHT22;619;51.472;6.628;2023-08-21T11:54:51;34.70;48.50
1259;DHT22;619;51.472;6.628;2023-08-21T11:57:18;34.70;48.60
1259;DHT22;619;51.472;6.628;2023-08-21T11:59:58;34.70;50.60
1259;DHT22;619;51.472;6.628;2023-08-21T12:02:29;34.70;49.60
1259;DHT22;619;51.472;6.628;2023-08-21T12:05:01;34.70;49.80
1259;DHT22;619;51.472;6.628;2023-08-21T12:07:30;34.60;49.20
1259;DHT22;619;51.472;6.628;2023-08-21T12:09:55;34.70;49.20
1259;DHT22;619;51.472;6.628;2023-08-21T12:12:23;34.80;49.00
1259;DHT22;619;51.472;6.628;2023-08-21T12:14:52;34.80;49.50
1259;DHT22;619;51.472;6.628;2023-08-21T12:17:17;34.80;48.70
1259;DHT22;619;51.472;6.628;2023-08-21T12:19:43;34.90;49.90
1259;DHT22;619;51.472;6.628;2023-08-21T12:22:11;35.00;49.00
1259;DHT22;619;51.472;6.628;2023-08-21T12:24:40;35.10;49.20
1259;DHT22;619;51.472;6.628;2023-08-21T12:27:10;35.10;48.30
1259;DHT22;619;51.472;6.628;2023-08-21T12:29:35;35.20;48.10
1259;DHT22;619;51.472;6.628;2023-08-21T12:32:01;35.20;48.50
1259;DHT22;619;51.472;6.628;2023-08-21T12:34:30;35.30;48.10
1259;DHT22;619;51.472;6.628;2023-08-21T12:36:56;35.30;47.70
1259;DHT22;619;51.472;6.628;2023-08-21T12:39:22;35.30;47.80
1259;DHT22;619;51.472;6.628;2023-08-21T12:41:47;35.30;47.90
1259;DHT22;619;51.472;6.628;2023-08-21T12:44:16;35.30;47.90
1259;DHT22;619;51.472;6.628;2023-08-21T12:46:41;35.40;48.40
1259;DHT22;619;51.472;6.628;2023-08-21T12:49:07;35.50;48.00
1259;DHT22;619;51.472;6.628;2023-08-21T12:51:35;35.60;47.70
1259;DHT22;619;51.472;6.628;2023-08-21T12:54:04;35.70;47.60
1259;DHT22;619;51.472;6.628;2023-08-21T12:56:34;35.70;47.60
1259;DHT22;619;51.472;6.628;2023-08-21T12:58:59;35.80;46.90
1259;DHT22;619;51.472;6.628;2023-08-21T13:01:28;35.90;45.60
1259;DHT22;619;51.472;6.628;2023-08-21T13:03:54;35.90;45.60
1259;DHT22;619;51.472;6.628;2023-08-21T13:06:19;35.70;46.40
1259;DHT22;619;51.472;6.628;2023-08-21T13:08:47;35.60;46.30
1259;DHT22;619;51.472;6.628;2023-08-21T13:11:13;35.70;47.10
1259;DHT22;619;51.472;6.628;2023-08-21T13:13:40;35.70;47.50
1259;DHT22;619;51.472;6.628;2023-08-21T13:16:06;35.80;47.40
1259;DHT22;619;51.472;6.628;2023-08-21T13:18:32;35.80;48.20
1259;DHT22;619;51.472;6.628;2023-08-21T13:20:59;35.90;46.50
1259;DHT22;619;51.472;6.628;2023-08-21T13:23:28;36.10;46.60
1259;DHT22;619;51.472;6.628;2023-08-21T13:25:59;36.20;45.60
1259;DHT22;619;51.472;6.628;2023-08-21T13:28:27;36.30;45.50
1259;DHT22;619;51.472;6.628;2023-08-21T13:30:59;36.40;45.50
1259;DHT22;619;51.472;6.628;2023-08-21T13:33:24;36.30;46.00
1259;DHT22;619;51.472;6.628;2023-08-21T13:35:53;36.10;45.90
1259;DHT22;619;51.472;6.628;2023-08-21T13:38:19;35.70;45.30
1259;DHT22;619;51.472;6.628;2023-08-21T13:40:44;35.40;46.30
1259;DHT22;619;51.472;6.628;2023-08-21T13:43:10;35.10;47.10
1259;DHT22;619;51.472;6.628;2023-08-21T13:45:37;35.00;48.00
1259;DHT22;619;51.472;6.628;2023-08-21T13:48:07;34.90;49.10
1259;DHT22;619;51.472;6.628;2023-08-21T13:50:38;35.00;49.20
1259;DHT22;619;51.472;6.628;2023-08-21T13:53:03;35.10;47.80
1259;DHT22;619;51.472;6.628;2023-08-21T13:55:29;35.00;47.30
1259;DHT22;619;51.472;6.628;2023-08-21T13:57:57;34.90;47.30
1259;DHT22;619;51.472;6.628;2023-08-21T14:00:25;34.90;48.30
1259;DHT22;619;51.472;6.628;2023-08-21T14:02:51;35.00;48.00
1259;DHT22;619;51.472;6.628;2023-08-21T14:05:16;35.20;48.40
1259;DHT22;619;51.472;6.628;2023-08-21T14:07:45;35.30;47.50
1259;DHT22;619;51.472;6.628;2023-08-21T14:10:10;35.60;47.30
1259;DHT22;619;51.472;6.628;2023-08-21T14:12:37;35.80;46.50
1259;DHT22;619;51.472;6.628;2023-08-21T14:15:03;36.00;46.60
1259;DHT22;619;51.472;6.628;2023-08-21T14:17:31;36.20;46.10
1259;DHT22;619;51.472;6.628;2023-08-21T14:19:59;36.50;44.70
1259;DHT22;619;51.472;6.628;2023-08-21T14:22:24;36.70;44.90
1259;DHT22;619;51.472;6.628;2023-08-21T14:24:50;36.90;45.00
1259;DHT22;619;51.472;6.628;2023-08-21T14:27:16;37.10;44.60
1259;DHT22;619;51.472;6.628;2023-08-21T14:29:43;37.20;44.00
1259;DHT22;619;51.472;6.628;2023-08-21T14:32:12;37.30;44.70
1259;DHT22;619;51.472;6.628;2023-08-21T14:34:38;37.50;45.00
1259;DHT22;619;51.472;6.628;2023-08-21T14:37:06;37.60;45.00
1259;DHT22;619;51.472;6.628;2023-08-21T14:39:32;37.70;44.60
1259;DHT22;619;51.472;6.628;2023-08-21T14:41:58;37.80;44.10
1259;DHT22;619;51.472;6.628;2023-08-21T14:44:26;37.90;43.80
1259;DHT22;619;51.472;6.628;2023-08-21T14:46:57;38.00;42.80
1259;DHT22;619;51.472;6.628;2023-08-21T14:49:24;38.00;42.60
1259;DHT22;619;51.472;6.628;2023-08-21T14:51:49;38.20;43.00
1259;DHT22;619;51.472;6.628;2023-08-21T14:54:16;38.20;42.70
1259;DHT22;619;51.472;6.628;2023-08-21T14:56:41;38.10;43.20
1259;DHT22;619;51.472;6.628;2023-08-21T14:59:12;38.00;43.00
1259;DHT22;619;51.472;6.628;2023-08-21T15:01:40;37.80;42.20
1259;DHT22;619;51.472;6.628;2023-08-21T15:04:06;37.80;43.10
1259;DHT22;619;51.472;6.628;2023-08-21T15:06:33;37.80;43.20
1259;DHT22;619;51.472;6.628;2023-08-21T15:08:59;37.70;42.50
1259;DHT22;619;51.472;6.628;2023-08-21T15:11:25;37.60;43.10
1259;DHT22;619;51.472;6.628;2023-08-21T15:13:51;37.70;43.20
1259;DHT22;619;51.472;6.628;2023-08-21T15:16:16;37.70;43.60
1259;DHT22;619;51.472;6.628;2023-08-21T15:18:44;37.80;43.80
1259;DHT22;619;51.472;6.628;2023-08-21T15:21:12;37.80;43.60
1259;DHT22;619;51.472;6.628;2023-08-21T15:23:38;37.90;43.20
1259;DHT22;619;51.472;6.628;2023-08-21T15:26:03;37.90;42.00
1259;DHT22;619;51.472;6.628;2023-08-21T15:28:31;37.90;42.10
1259;DHT22;619;51.472;6.628;2023-08-21T15:30:57;37.70;42.20
1259;DHT22;619;51.472;6.628;2023-08-21T15:33:22;37.60;42.80
1259;DHT22;619;51.472;6.628;2023-08-21T15:35:50;37.50;43.00
1259;DHT22;619;51.472;6.628;2023-08-21T15:38:16;37.50;42.70
1259;DHT22;619;51.472;6.628;2023-08-21T15:40:42;37.50;42.60
1259;DHT22;619;51.472;6.628;2023-08-21T15:43:07;37.40;43.00
1259;DHT22;619;51.472;6.628;2023-08-21T15:45:36;37.50;42.50
1259;DHT22;619;51.472;6.628;2023-08-21T15:48:03;37.50;42.30
1259;DHT22;619;51.472;6.628;2023-08-21T15:50:30;37.50;43.30
1259;DHT22;619;51.472;6.628;2023-08-21T15:52:58;37.60;43.10
1259;DHT22;619;51.472;6.628;2023-08-21T15:55:26;37.60;41.90
1259;DHT22;619;51.472;6.628;2023-08-21T15:57:51;37.70;42.50
1259;DHT22;619;51.472;6.628;2023-08-21T16:00:17;37.70;42.30
1259;DHT22;619;51.472;6.628;2023-08-21T16:02:45;37.70;42.20
1259;DHT22;619;51.472;6.628;2023-08-21T16:05:11;37.80;42.60
1259;DHT22;619;51.472;6.628;2023-08-21T16:07:36;37.80;42.30
1259;DHT22;619;51.472;6.628;2023-08-21T16:10:08;37.80;41.40
1259;DHT22;619;51.472;6.628;2023-08-21T16:12:36;37.90;41.30
1259;DHT22;619;51.472;6.628;2023-08-21T16:15:02;38.00;41.70
1259;DHT22;619;51.472;6.628;2023-08-21T16:17:30;38.00;42.50
1259;DHT22;619;51.472;6.628;2023-08-21T16:19:58;38.00;42.20
1259;DHT22;619;51.472;6.628;2023-08-21T16:22:28;38.00;41.90
1259;DHT22;619;51.472;6.628;2023-08-21T16:24:53;37.80;41.70
1259;DHT22;619;51.472;6.628;2023-08-21T16:27:19;37.80;41.50
1259;DHT22;619;51.472;6.628;2023-08-21T16:29:45;37.70;41.00
1259;DHT22;619;51.472;6.628;2023-08-21T16:32:10;37.60;42.00
1259;DHT22;619;51.472;6.628;2023-08-21T16:34:38;37.50;42.80